< < Back
Terminal Aerodrome Forecast


Current Version              Previous Versions:   1  2  3  4  5  6  7  8  9  

Terminal Aerodrome Forecast

258
FTUS42 KGSP 292339 AAB
TAFHKY
TAF AMD
KHKY 292339Z 3000/3024 20007KT P6SM FEW250
     FM300700 20006KT P6SM BKN060
     FM301100 21006KT P6SM -SHRA OVC040
     FM301300 24009KT P6SM BKN021
     FM301600 28011KT P6SM SCT250=



Latest METAR

104
SAUS70 KWBC 300900
MTRHKY
METAR KHKY 300853Z AUTO 21006KT 10SM CLR 06/M08 A3004 RMK AO2 SLP162
T00611078 58026


USA.gov is the U.S. government's official web portal to all federal, state and local government web resources and services.